sensor_id;sensor_type;location;lat;lon;timestamp;pressure;altitude;pressure_sealevel;temperature;humidity
47524;BME280;33253;42.144;25.884;2023-05-23T00:00:22;100103.06;;;15.73;100.00
47524;BME280;33253;42.144;25.884;2023-05-23T00:02:48;100126.19;;;15.45;100.00
47524;BME280;33253;42.144;25.884;2023-05-23T00:05:13;100123.31;;;15.22;100.00
47524;BME280;33253;42.144;25.884;2023-05-23T00:07:45;100124.88;;;15.09;100.00
47524;BME280;33253;42.144;25.884;2023-05-23T00:10:11;100123.06;;;15.02;100.00
47524;BME280;33253;42.144;25.884;2023-05-23T00:12:36;100028.63;;;14.40;100.00
47524;BME280;33253;42.144;25.884;2023-05-23T00:15:04;100108.22;;;14.93;100.00
47524;BME280;33253;42.144;25.884;2023-05-23T00:17:32;100130.75;;;14.96;100.00
47524;BME280;33253;42.144;25.884;2023-05-23T00:19:57;100122.97;;;14.96;100.00
47524;BME280;33253;42.144;25.884;2023-05-23T00:22:23;100130.88;;;15.05;100.00
47524;BME280;33253;42.144;25.884;2023-05-23T00:24:48;100125.00;;;15.20;100.00
47524;BME280;33253;42.144;25.884;2023-05-23T00:27:13;100112.75;;;15.10;100.00
47524;BME280;33253;42.144;25.884;2023-05-23T00:29:39;100117.13;;;15.14;100.00
47524;BME280;33253;42.144;25.884;2023-05-23T00:32:05;100115.47;;;15.19;100.00
47524;BME280;33253;42.144;25.884;2023-05-23T00:34:30;100101.53;;;15.14;100.00
47524;BME280;33253;42.144;25.884;2023-05-23T00:36:55;100106.84;;;15.25;100.00
47524;BME280;33253;42.144;25.884;2023-05-23T00:39:22;100093.84;;;15.25;100.00
47524;BME280;33253;42.144;25.884;2023-05-23T00:41:48;100118.31;;;15.39;100.00
47524;BME280;33253;42.144;25.884;2023-05-23T00:44:14;100113.09;;;15.39;100.00
47524;BME280;33253;42.144;25.884;2023-05-23T00:46:43;100113.91;;;15.35;100.00
47524;BME280;33253;42.144;25.884;2023-05-23T00:49:10;100114.66;;;15.25;100.00
47524;BME280;33253;42.144;25.884;2023-05-23T00:51:35;100106.00;;;15.24;100.00
47524;BME280;33253;42.144;25.884;2023-05-23T00:54:03;100115.53;;;15.25;100.00
47524;BME280;33253;42.144;25.884;2023-05-23T00:56:29;100010.06;;;14.74;100.00
47524;BME280;33253;42.144;25.884;2023-05-23T00:58:55;100093.00;;;15.26;100.00
47524;BME280;33253;42.144;25.884;2023-05-23T01:01:20;100110.38;;;15.30;100.00
47524;BME280;33253;42.144;25.884;2023-05-23T01:03:46;100103.19;;;15.09;100.00
47524;BME280;33253;42.144;25.884;2023-05-23T01:06:13;100105.47;;;14.84;100.00
47524;BME280;33253;42.144;25.884;2023-05-23T01:08:39;100102.09;;;14.33;100.00
47524;BME280;33253;42.144;25.884;2023-05-23T01:11:22;100105.84;;;13.97;100.00
47524;BME280;33253;42.144;25.884;2023-05-23T01:13:58;100094.59;;;13.47;100.00
47524;BME280;33253;42.144;25.884;2023-05-23T01:16:35;100037.53;;;13.04;100.00
47524;BME280;33253;42.144;25.884;2023-05-23T01:21:39;100105.31;;;13.66;100.00
47524;BME280;33253;42.144;25.884;2023-05-23T01:24:35;100103.00;;;13.83;100.00
47524;BME280;33253;42.144;25.884;2023-05-23T01:29:56;100089.44;;;13.99;100.00
47524;BME280;33253;42.144;25.884;2023-05-23T01:32:24;100099.28;;;14.17;100.00
47524;BME280;33253;42.144;25.884;2023-05-23T01:34:52;100101.78;;;14.14;100.00
47524;BME280;33253;42.144;25.884;2023-05-23T01:37:18;100100.13;;;14.18;100.00
47524;BME280;33253;42.144;25.884;2023-05-23T01:39:44;100041.72;;;13.89;100.00
47524;BME280;33253;42.144;25.884;2023-05-23T01:42:10;100117.63;;;14.30;100.00
47524;BME280;33253;42.144;25.884;2023-05-23T01:44:37;100106.44;;;14.32;100.00
47524;BME280;33253;42.144;25.884;2023-05-23T01:47:03;100099.56;;;14.36;100.00
47524;BME280;33253;42.144;25.884;2023-05-23T01:49:30;100075.09;;;14.21;100.00
47524;BME280;33253;42.144;25.884;2023-05-23T01:51:56;100108.13;;;14.30;100.00
47524;BME280;33253;42.144;25.884;2023-05-23T01:54:22;100110.66;;;14.26;100.00
47524;BME280;33253;42.144;25.884;2023-05-23T14:59:28;99982.38;;;25.77;59.91
47524;BME280;33253;42.144;25.884;2023-05-23T15:01:53;100000.78;;;25.80;59.46
47524;BME280;33253;42.144;25.884;2023-05-23T15:04:19;99992.94;;;25.77;59.68
47524;BME280;33253;42.144;25.884;2023-05-23T15:06:44;99925.41;;;25.41;60.63
47524;BME280;33253;42.144;25.884;2023-05-23T15:09:11;99993.28;;;25.93;59.80
47524;BME280;33253;42.144;25.884;2023-05-23T15:11:37;99989.59;;;25.97;58.03
47524;BME280;33253;42.144;25.884;2023-05-23T15:14:03;99986.69;;;26.06;59.47
47524;BME280;33253;42.144;25.884;2023-05-23T15:16:28;99990.94;;;26.10;59.95
47524;BME280;33253;42.144;25.884;2023-05-23T15:18:57;99995.50;;;26.05;59.01
47524;BME280;33253;42.144;25.884;2023-05-23T15:21:24;99982.44;;;26.00;59.28
47524;BME280;33253;42.144;25.884;2023-05-23T15:23:49;99999.34;;;25.96;59.40
47524;BME280;33253;42.144;25.884;2023-05-23T15:26:15;100008.81;;;25.77;65.06
47524;BME280;33253;42.144;25.884;2023-05-23T15:28:40;100000.41;;;25.37;67.65
47524;BME280;33253;42.144;25.884;2023-05-23T15:31:06;100003.66;;;24.55;73.10
47524;BME280;33253;42.144;25.884;2023-05-23T15:33:31;99973.41;;;23.68;75.77
47524;BME280;33253;42.144;25.884;2023-05-23T15:35:57;99980.25;;;23.41;75.73
47524;BME280;33253;42.144;25.884;2023-05-23T15:38:23;100014.25;;;23.52;77.06
47524;BME280;33253;42.144;25.884;2023-05-23T15:40:49;100024.69;;;23.56;77.62
47524;BME280;33253;42.144;25.884;2023-05-23T15:43:16;100002.09;;;23.45;77.76
47524;BME280;33253;42.144;25.884;2023-05-23T15:45:42;100016.25;;;23.40;78.48
47524;BME280;33253;42.144;25.884;2023-05-23T15:48:07;100007.38;;;23.05;80.53
47524;BME280;33253;42.144;25.884;2023-05-23T15:50:33;100020.34;;;22.72;80.90
47524;BME280;33253;42.144;25.884;2023-05-23T15:52:58;100039.06;;;22.57;81.58
47524;BME280;33253;42.144;25.884;2023-05-23T15:55:24;100027.47;;;22.19;84.16
47524;BME280;33253;42.144;25.884;2023-05-23T15:57:49;100029.06;;;22.27;83.29
47524;BME280;33253;42.144;25.884;2023-05-23T16:00:15;99977.34;;;21.78;82.56
47524;BME280;33253;42.144;25.884;2023-05-23T16:02:40;100039.84;;;22.13;84.24
47524;BME280;33253;42.144;25.884;2023-05-23T16:05:06;99961.47;;;21.84;85.15
47524;BME280;33253;42.144;25.884;2023-05-23T16:07:33;100034.25;;;22.30;84.78
47524;BME280;33253;42.144;25.884;2023-05-23T16:09:59;100039.34;;;22.41;84.86
47524;BME280;33253;42.144;25.884;2023-05-23T16:12:24;100042.63;;;22.53;85.32
47524;BME280;33253;42.144;25.884;2023-05-23T16:14:50;100043.38;;;22.61;85.68
47524;BME280;33253;42.144;25.884;2023-05-23T16:17:15;100052.06;;;22.65;84.90
47524;BME280;33253;42.144;25.884;2023-05-23T16:19:40;100054.03;;;22.52;83.76
47524;BME280;33253;42.144;25.884;2023-05-23T16:22:06;100002.94;;;22.18;83.05
47524;BME280;33253;42.144;25.884;2023-05-23T16:24:31;100058.41;;;22.54;83.09
47524;BME280;33253;42.144;25.884;2023-05-23T16:26:58;100067.78;;;22.69;83.92
47524;BME280;33253;42.144;25.884;2023-05-23T16:29:23;100072.88;;;22.77;84.14
47524;BME280;33253;42.144;25.884;2023-05-23T16:31:49;100050.91;;;22.80;84.03
47524;BME280;33253;42.144;25.884;2023-05-23T16:34:14;100074.28;;;22.93;83.67
47524;BME280;33253;42.144;25.884;2023-05-23T16:36:39;100068.94;;;22.98;83.58
47524;BME280;33253;42.144;25.884;2023-05-23T16:39:05;100073.31;;;22.98;83.22
47524;BME280;33253;42.144;25.884;2023-05-23T16:41:30;100055.31;;;22.77;84.17
47524;BME280;33253;42.144;25.884;2023-05-23T16:43:56;100035.47;;;22.61;84.04
47524;BME280;33253;42.144;25.884;2023-05-23T16:46:21;100063.09;;;22.84;84.62
47524;BME280;33253;42.144;25.884;2023-05-23T16:48:47;100030.97;;;22.66;84.54
47524;BME280;33253;42.144;25.884;2023-05-23T16:51:13;100082.09;;;22.98;84.68
47524;BME280;33253;42.144;25.884;2023-05-23T16:53:40;100075.16;;;22.96;85.28
47524;BME280;33253;42.144;25.884;2023-05-23T16:56:05;100037.81;;;22.75;84.98
47524;BME280;33253;42.144;25.884;2023-05-23T16:58:31;100083.69;;;23.07;85.11
47524;BME280;33253;42.144;25.884;2023-05-23T17:01:00;100038.47;;;22.86;86.61
47524;BME280;33253;42.144;25.884;2023-05-23T17:03:25;100080.13;;;23.09;87.63
47524;BME280;33253;42.144;25.884;2023-05-23T17:05:53;100079.13;;;23.14;90.44
47524;BME280;33253;42.144;25.884;2023-05-23T17:08:18;100089.44;;;23.26;92.56
47524;BME280;33253;42.144;25.884;2023-05-23T17:10:44;100070.56;;;23.05;91.34
47524;BME280;33253;42.144;25.884;2023-05-23T17:13:09;100066.69;;;22.80;91.85
47524;BME280;33253;42.144;25.884;2023-05-23T17:15:35;100077.69;;;22.99;93.03
47524;BME280;33253;42.144;25.884;2023-05-23T17:18:00;100066.59;;;22.84;94.58
47524;BME280;33253;42.144;25.884;2023-05-23T17:20:26;100071.06;;;22.81;93.57
47524;BME280;33253;42.144;25.884;2023-05-23T17:22:51;100071.66;;;22.50;95.59
47524;BME280;33253;42.144;25.884;2023-05-23T17:25:17;100017.78;;;22.21;94.64
47524;BME280;33253;42.144;25.884;2023-05-23T17:27:43;100084.75;;;22.51;94.84
47524;BME280;33253;42.144;25.884;2023-05-23T17:30:09;100042.13;;;22.32;95.27
47524;BME280;33253;42.144;25.884;2023-05-23T17:32:38;100075.28;;;22.42;95.77
47524;BME280;33253;42.144;25.884;2023-05-23T17:35:04;100025.13;;;22.02;96.93
47524;BME280;33253;42.144;25.884;2023-05-23T17:37:30;100079.94;;;22.25;98.54
47524;BME280;33253;42.144;25.884;2023-05-23T17:39:55;99999.16;;;21.85;97.69
47524;BME280;33253;42.144;25.884;2023-05-23T17:42:20;100019.03;;;22.00;98.00
47524;BME280;33253;42.144;25.884;2023-05-23T17:44:46;100098.16;;;22.37;100.00
47524;BME280;33253;42.144;25.884;2023-05-23T17:47:11;100089.47;;;22.32;98.92
47524;BME280;33253;42.144;25.884;2023-05-23T17:49:37;100092.91;;;22.34;96.69
47524;BME280;33253;42.144;25.884;2023-05-23T17:52:03;100092.09;;;22.30;96.46
47524;BME280;33253;42.144;25.884;2023-05-23T17:54:30;100103.44;;;22.37;96.07
47524;BME280;33253;42.144;25.884;2023-05-23T17:56:56;100094.84;;;22.26;95.66
47524;BME280;33253;42.144;25.884;2023-05-23T17:59:22;100108.72;;;22.33;95.98
47524;BME280;33253;42.144;25.884;2023-05-23T18:01:49;100103.59;;;22.25;96.14
47524;BME280;33253;42.144;25.884;2023-05-23T18:04:14;100119.28;;;22.31;97.68
47524;BME280;33253;42.144;25.884;2023-05-23T18:06:40;100112.31;;;22.28;98.47
47524;BME280;33253;42.144;25.884;2023-05-23T18:09:05;100116.72;;;22.26;99.16
47524;BME280;33253;42.144;25.884;2023-05-23T18:11:36;100069.03;;;21.96;99.14
47524;BME280;33253;42.144;25.884;2023-05-23T18:14:01;100064.06;;;21.79;99.27
47524;BME280;33253;42.144;25.884;2023-05-23T18:16:27;100128.56;;;21.99;99.81
47524;BME280;33253;42.144;25.884;2023-05-23T18:18:52;100126.91;;;21.92;100.00
47524;BME280;33253;42.144;25.884;2023-05-23T18:21:18;100120.91;;;21.84;100.00
47524;BME280;33253;42.144;25.884;2023-05-23T18:23:43;100133.97;;;21.90;100.00
47524;BME280;33253;42.144;25.884;2023-05-23T18:26:09;100138.25;;;21.95;99.93
47524;BME280;33253;42.144;25.884;2023-05-23T18:28:36;100144.31;;;21.99;99.55
47524;BME280;33253;42.144;25.884;2023-05-23T18:31:01;100130.59;;;21.80;99.31
47524;BME280;33253;42.144;25.884;2023-05-23T18:33:27;100142.88;;;21.78;100.00
47524;BME280;33253;42.144;25.884;2023-05-23T18:35:53;100143.75;;;21.80;100.00
47524;BME280;33253;42.144;25.884;2023-05-23T18:38:21;100145.47;;;21.81;99.92
47524;BME280;33253;42.144;25.884;2023-05-23T18:40:49;100147.22;;;21.82;99.89
47524;BME280;33253;42.144;25.884;2023-05-23T18:43:14;100150.66;;;21.86;100.00
47524;BME280;33253;42.144;25.884;2023-05-23T18:45:42;100160.34;;;21.84;100.00
47524;BME280;33253;42.144;25.884;2023-05-23T18:48:07;100164.16;;;21.61;100.00
47524;BME280;33253;42.144;25.884;2023-05-23T18:50:33;100152.81;;;21.56;100.00
47524;BME280;33253;42.144;25.884;2023-05-23T18:52:58;100145.09;;;21.43;100.00
47524;BME280;33253;42.144;25.884;2023-05-23T18:55:24;100154.69;;;21.44;100.00
47524;BME280;33253;42.144;25.884;2023-05-23T18:57:50;100165.06;;;21.55;100.00
47524;BME280;33253;42.144;25.884;2023-05-23T19:00:17;100146.72;;;21.50;100.00
47524;BME280;33253;42.144;25.884;2023-05-23T19:02:42;100159.88;;;21.52;100.00
47524;BME280;33253;42.144;25.884;2023-05-23T19:05:10;100075.72;;;20.93;100.00
47524;BME280;33253;42.144;25.884;2023-05-23T19:07:35;100164.47;;;21.33;100.00
47524;BME280;33253;42.144;25.884;2023-05-23T19:10:01;100162.22;;;21.00;100.00
47524;BME280;33253;42.144;25.884;2023-05-23T19:12:26;100170.91;;;21.07;100.00
47524;BME280;33253;42.144;25.884;2023-05-23T19:14:52;100167.44;;;21.02;100.00
47524;BME280;33253;42.144;25.884;2023-05-23T19:17:17;100183.16;;;21.07;100.00
47524;BME280;33253;42.144;25.884;2023-05-23T19:19:43;100177.25;;;20.86;100.00
47524;BME280;33253;42.144;25.884;2023-05-23T19:22:09;100181.59;;;20.87;100.00
47524;BME280;33253;42.144;25.884;2023-05-23T19:24:34;100152.97;;;20.64;100.00
47524;BME280;33253;42.144;25.884;2023-05-23T19:27:01;100185.25;;;20.74;100.00
47524;BME280;33253;42.144;25.884;2023-05-23T19:29:26;100127.94;;;20.29;100.00
47524;BME280;33253;42.144;25.884;2023-05-23T19:31:52;100173.16;;;20.54;100.00
47524;BME280;33253;42.144;25.884;2023-05-23T19:34:18;100174.13;;;20.44;100.00
47524;BME280;33253;42.144;25.884;2023-05-23T19:36:44;100208.25;;;20.38;100.00
47524;BME280;33253;42.144;25.884;2023-05-23T19:39:09;100176.09;;;20.14;100.00
47524;BME280;33253;42.144;25.884;2023-05-23T19:41:36;100191.03;;;19.99;100.00
47524;BME280;33253;42.144;25.884;2023-05-23T19:44:02;100176.41;;;19.52;100.00
47524;BME280;33253;42.144;25.884;2023-05-23T19:46:28;100206.00;;;19.71;100.00
47524;BME280;33253;42.144;25.884;2023-05-23T19:48:56;100206.03;;;19.68;100.00
47524;BME280;33253;42.144;25.884;2023-05-23T19:51:23;100191.25;;;19.53;100.00
47524;BME280;33253;42.144;25.884;2023-05-23T19:53:51;100199.97;;;19.53;100.00
47524;BME280;33253;42.144;25.884;2023-05-23T19:56:19;100134.72;;;19.04;100.00
47524;BME280;33253;42.144;25.884;2023-05-23T19:58:46;100199.22;;;19.20;100.00
47524;BME280;33253;42.144;25.884;2023-05-23T20:01:12;100200.03;;;19.36;100.00
47524;BME280;33253;42.144;25.884;2023-05-23T20:03:37;100190.47;;;19.21;100.00
47524;BME280;33253;42.144;25.884;2023-05-23T20:06:03;100188.78;;;19.14;100.00
47524;BME280;33253;42.144;25.884;2023-05-23T20:08:28;100120.81;;;18.77;100.00
47524;BME280;33253;42.144;25.884;2023-05-23T20:10:54;100210.53;;;19.22;100.00
47524;BME280;33253;42.144;25.884;2023-05-23T20:13:20;100146.94;;;18.80;100.00
47524;BME280;33253;42.144;25.884;2023-05-23T20:15:45;100208.84;;;19.12;100.00
47524;BME280;33253;42.144;25.884;2023-05-23T20:18:11;100140.00;;;18.76;100.00
47524;BME280;33253;42.144;25.884;2023-05-23T20:20:37;100209.69;;;19.11;100.00
47524;BME280;33253;42.144;25.884;2023-05-23T20:23:02;100208.84;;;19.04;100.00
47524;BME280;33253;42.144;25.884;2023-05-23T20:25:28;100204.50;;;19.02;100.00
47524;BME280;33253;42.144;25.884;2023-05-23T20:27:55;100188.81;;;18.92;100.00
47524;BME280;33253;42.144;25.884;2023-05-23T20:30:21;100183.56;;;18.85;100.00
47524;BME280;33253;42.144;25.884;2023-05-23T20:32:47;100209.72;;;18.89;100.00
47524;BME280;33253;42.144;25.884;2023-05-23T20:35:18;100187.06;;;18.70;100.00
47524;BME280;33253;42.144;25.884;2023-05-23T20:37:43;100206.25;;;18.66;100.00
47524;BME280;33253;42.144;25.884;2023-05-23T20:40:09;100176.63;;;18.48;100.00
47524;BME280;33253;42.144;25.884;2023-05-23T20:42:35;100024.22;;;17.67;100.00
47524;BME280;33253;42.144;25.884;2023-05-23T20:45:02;100141.72;;;17.93;100.00
47524;BME280;33253;42.144;25.884;2023-05-23T20:47:29;100204.47;;;18.14;100.00
47524;BME280;33253;42.144;25.884;2023-05-23T20:49:54;100195.75;;;18.01;100.00
47524;BME280;33253;42.144;25.884;2023-05-23T20:52:20;100128.63;;;17.61;100.00
47524;BME280;33253;42.144;25.884;2023-05-23T20:54:47;100201.88;;;18.14;100.00
47524;BME280;33253;42.144;25.884;2023-05-23T20:57:16;100200.13;;;18.11;100.00
47524;BME280;33253;42.144;25.884;2023-05-23T20:59:41;100180.09;;;18.08;100.00
47524;BME280;33253;42.144;25.884;2023-05-23T21:02:07;100194.94;;;18.28;100.00
47524;BME280;33253;42.144;25.884;2023-05-23T21:04:33;100126.94;;;17.85;100.00
47524;BME280;33253;42.144;25.884;2023-05-23T21:06:58;100194.91;;;18.23;100.00
47524;BME280;33253;42.144;25.884;2023-05-23T21:09:25;100194.94;;;18.37;100.00
47524;BME280;33253;42.144;25.884;2023-05-23T21:11:50;100184.47;;;18.36;100.00
47524;BME280;33253;42.144;25.884;2023-05-23T21:14:16;100205.38;;;18.56;100.00
47524;BME280;33253;42.144;25.884;2023-05-23T21:16:41;100200.13;;;18.65;100.00
47524;BME280;33253;42.144;25.884;2023-05-23T21:19:07;100172.28;;;18.27;100.00
47524;BME280;33253;42.144;25.884;2023-05-23T21:21:33;100115.66;;;18.03;100.00
47524;BME280;33253;42.144;25.884;2023-05-23T21:23:58;100198.41;;;18.53;100.00
47524;BME280;33253;42.144;25.884;2023-05-23T21:26:23;100212.34;;;18.55;100.00
47524;BME280;33253;42.144;25.884;2023-05-23T21:28:49;100219.31;;;18.42;100.00
47524;BME280;33253;42.144;25.884;2023-05-23T21:31:15;100213.19;;;18.34;100.00
47524;BME280;33253;42.144;25.884;2023-05-23T21:33:40;100211.47;;;18.15;100.00
47524;BME280;33253;42.144;25.884;2023-05-23T21:36:06;100147.78;;;17.74;100.00
47524;BME280;33253;42.144;25.884;2023-05-23T21:38:31;100222.78;;;18.12;100.00
47524;BME280;33253;42.144;25.884;2023-05-23T21:41:00;100205.31;;;17.99;100.00
47524;BME280;33253;42.144;25.884;2023-05-23T21:43:25;100225.38;;;18.09;100.00
47524;BME280;33253;42.144;25.884;2023-05-23T21:45:50;100236.69;;;18.08;100.00
47524;BME280;33253;42.144;25.884;2023-05-23T21:48:16;100228.84;;;17.97;100.00
47524;BME280;33253;42.144;25.884;2023-05-23T21:50:41;100163.38;;;17.51;100.00
47524;BME280;33253;42.144;25.884;2023-05-23T21:53:07;100183.44;;;17.69;100.00
47524;BME280;33253;42.144;25.884;2023-05-23T21:55:34;100185.19;;;17.67;100.00
47524;BME280;33253;42.144;25.884;2023-05-23T21:57:59;100224.41;;;17.93;100.00
47524;BME280;33253;42.144;25.884;2023-05-23T22:00:24;100224.50;;;18.04;100.00
47524;BME280;33253;42.144;25.884;2023-05-23T22:02:51;100148.63;;;17.62;100.00
47524;BME280;33253;42.144;25.884;2023-05-23T22:05:17;100208.81;;;18.02;100.00
47524;BME280;33253;42.144;25.884;2023-05-23T22:07:42;100173.06;;;17.87;100.00
47524;BME280;33253;42.144;25.884;2023-05-23T22:10:08;100162.59;;;17.83;100.00
47524;BME280;33253;42.144;25.884;2023-05-23T22:12:34;100109.47;;;17.59;100.00
47524;BME280;33253;42.144;25.884;2023-05-23T22:15:00;100201.84;;;17.98;100.00
47524;BME280;33253;42.144;25.884;2023-05-23T22:17:25;100210.56;;;17.99;100.00
47524;BME280;33253;42.144;25.884;2023-05-23T22:19:54;100190.44;;;17.79;100.00
47524;BME280;33253;42.144;25.884;2023-05-23T22:22:21;100177.38;;;17.77;100.00
47524;BME280;33253;42.144;25.884;2023-05-23T22:24:46;100186.00;;;17.59;100.00
47524;BME280;33253;42.144;25.884;2023-05-23T22:27:12;100195.66;;;17.70;100.00
47524;BME280;33253;42.144;25.884;2023-05-23T22:29:37;100202.63;;;17.71;100.00
47524;BME280;33253;42.144;25.884;2023-05-23T22:32:03;100200.00;;;17.71;100.00
47524;BME280;33253;42.144;25.884;2023-05-23T22:34:29;100180.78;;;17.59;100.00
47524;BME280;33253;42.144;25.884;2023-05-23T22:36:54;100173.84;;;17.54;100.00
47524;BME280;33253;42.144;25.884;2023-05-23T22:39:21;100179.91;;;17.53;100.00
47524;BME280;33253;42.144;25.884;2023-05-23T22:41:46;100147.66;;;17.34;100.00
47524;BME280;33253;42.144;25.884;2023-05-23T22:44:12;100178.19;;;17.56;100.00
47524;BME280;33253;42.144;25.884;2023-05-23T22:46:37;100180.81;;;17.55;100.00
47524;BME280;33253;42.144;25.884;2023-05-23T22:49:03;100194.78;;;17.71;100.00
47524;BME280;33253;42.144;25.884;2023-05-23T22:51:29;100152.03;;;17.42;100.00
47524;BME280;33253;42.144;25.884;2023-05-23T22:53:58;100172.91;;;17.38;100.00
47524;BME280;33253;42.144;25.884;2023-05-23T22:56:23;100172.84;;;17.27;100.00
47524;BME280;33253;42.144;25.884;2023-05-23T22:58:49;100188.53;;;17.28;100.00
47524;BME280;33253;42.144;25.884;2023-05-23T23:01:14;100194.53;;;17.17;100.00
47524;BME280;33253;42.144;25.884;2023-05-23T23:03:39;100177.91;;;16.97;100.00
47524;BME280;33253;42.144;25.884;2023-05-23T23:06:05;100197.03;;;16.98;100.00
47524;BME280;33253;42.144;25.884;2023-05-23T23:08:30;100192.47;;;16.72;100.00
47524;BME280;33253;42.144;25.884;2023-05-23T23:10:56;100189.03;;;16.76;100.00
47524;BME280;33253;42.144;25.884;2023-05-23T23:13:22;100185.53;;;16.71;100.00
47524;BME280;33253;42.144;25.884;2023-05-23T23:15:48;100186.34;;;16.65;100.00
47524;BME280;33253;42.144;25.884;2023-05-23T23:18:14;100193.38;;;16.76;100.00
47524;BME280;33253;42.144;25.884;2023-05-23T23:20:41;100115.72;;;16.27;100.00
47524;BME280;33253;42.144;25.884;2023-05-23T23:23:06;100181.19;;;16.73;100.00
47524;BME280;33253;42.144;25.884;2023-05-23T23:25:32;100131.50;;;16.48;100.00
47524;BME280;33253;42.144;25.884;2023-05-23T23:27:57;100172.50;;;16.76;100.00
47524;BME280;33253;42.144;25.884;2023-05-23T23:30:23;100169.03;;;16.74;100.00
47524;BME280;33253;42.144;25.884;2023-05-23T23:32:48;100135.94;;;16.62;100.00
47524;BME280;33253;42.144;25.884;2023-05-23T23:35:14;100135.97;;;16.70;100.00
47524;BME280;33253;42.144;25.884;2023-05-23T23:37:39;100168.31;;;16.92;100.00
47524;BME280;33253;42.144;25.884;2023-05-23T23:40:05;100185.81;;;17.10;100.00
47524;BME280;33253;42.144;25.884;2023-05-23T23:42:33;100167.44;;;16.91;100.00
47524;BME280;33253;42.144;25.884;2023-05-23T23:44:58;100166.59;;;16.95;100.00
47524;BME280;33253;42.144;25.884;2023-05-23T23:47:24;100157.94;;;17.04;100.00
47524;BME280;33253;42.144;25.884;2023-05-23T23:49:50;100157.13;;;17.10;100.00
47524;BME280;33253;42.144;25.884;2023-05-23T23:52:16;100178.88;;;17.18;100.00
47524;BME280;33253;42.144;25.884;2023-05-23T23:54:41;100163.22;;;17.13;100.00
47524;BME280;33253;42.144;25.884;2023-05-23T23:57:07;100161.47;;;17.16;100.00
47524;BME280;33253;42.144;25.884;2023-05-23T23:59:39;100177.16;;;17.17;100.00
